EGNS/IOM METAR and TAF weather

Enter ICAO airport designator
Station Type Date Time Source
EGNS METAR 2021/05/14 03:50 UTC NOAA

EGNS 140350Z 07008KT CAVOK 10/08 Q1010


Station Type Date Time Source
EGNS Decoded METAR 2021/05/14 03:50 UTC NOAA

Isle Of Man / Ronaldsway Airport, United Kingdom (EGNS) 54-05N 004-38W 0M
May 13, 2021 - 11:50 PM EDT / 2021.05.14 0350 UTC
Wind: from the ENE (070 degrees) at 9 MPH (8 KT):0
Visibility: greater than 7 mile(s):0
Temperature: 50 F (10 C)
Dew Point: 46 F (8 C)
Relative Humidity: 87%
Pressure (altimeter): 29.83 in. Hg (1010 hPa)
ob: EGNS 140350Z 07008KT CAVOK 10/08 Q1010
cycle: 4

Station Type Date Time Source
EGNS TAF 2019/01/16 05:00 UTC NOAA

TAF EGNS 160500 Z 1606/1615 28020KT 9999 FEW010 BKN025
TEMPO 1606/1609 6000 RA BKN010 PROB30
TEMPO 1613/1615 7000 -SHRA

Example: see airport list